LFSI

Saint-Dizier-Robinson (BA 113) Air Base

Airport
ICAO code
LFSI
Summary
ICAO Region
EUR
ICAO Territory
Location

, Champagne-Ardenne

Serving
St.-dizier
Elevation
458 ft
Coordinates
48° 38' 10" N , 4° 53' 58" E
Metar
Observation
LFSI 030230Z AUTO 07010KT 9999 OVC015 04/01 Q1016
Station
St-Dizier
Date/Time
2022-12-03 02:30:00
Wind direction
70°
Wind speed
10 kts
Lowest cloud amount
overcast
Temperature
4°C
Dew point
1°C
Humidity
80%
QNH
1016 hPa
Weather condition
n/a

Runways

Designator Length Width Surface Rops
11/29 2412 45 ASP No/No

Airport map

Aerial View

SKYbrary Partners:

Safety knowledge contributed by: